createdAt,value
2018-02-06T00:02:24.881Z,57.15
2018-02-06T00:04:52.433Z,56.76
2018-02-06T00:07:20.365Z,56.60
2018-02-06T00:09:47.957Z,56.74
2018-02-06T00:12:15.517Z,56.60
2018-02-06T00:14:43.107Z,57.33
2018-02-06T00:17:10.646Z,58.81
2018-02-06T00:19:38.218Z,58.46
2018-02-06T00:22:05.872Z,58.02
2018-02-06T00:24:33.440Z,58.12
2018-02-06T00:27:01.033Z,58.49
2018-02-06T00:29:28.570Z,57.47
2018-02-06T00:31:56.671Z,56.94
2018-02-06T00:34:24.787Z,57.27
2018-02-06T00:36:52.326Z,57.54
2018-02-06T00:39:19.924Z,57.41
2018-02-06T00:42:04.922Z,57.72
2018-02-06T00:44:33.000Z,58.61
2018-02-06T00:47:00.560Z,59.43
2018-02-06T00:49:28.105Z,59.80
2018-02-06T00:51:55.694Z,60.37
2018-02-06T00:54:24.484Z,59.21
2018-02-06T00:56:52.076Z,58.41
2018-02-06T00:59:20.005Z,57.70
2018-02-06T01:01:47.555Z,56.96
2018-02-06T01:04:15.155Z,56.41
2018-02-06T01:06:42.700Z,55.98
2018-02-06T01:09:10.273Z,55.84
2018-02-06T01:11:37.866Z,56.64
2018-02-06T01:14:05.452Z,56.09
2018-02-06T01:16:33.004Z,56.42
2018-02-06T01:19:00.587Z,56.42
2018-02-06T01:21:28.674Z,56.95
2018-02-06T01:23:56.293Z,56.76
2018-02-06T01:26:24.114Z,56.35
2018-02-06T01:28:51.651Z,55.71
2018-02-06T01:31:19.590Z,55.81
2018-02-06T01:33:47.134Z,55.57
2018-02-06T01:36:14.744Z,55.03
2018-02-06T01:38:42.307Z,54.82
2018-02-06T01:41:09.872Z,55.14
2018-02-06T01:43:37.473Z,55.35
2018-02-06T01:46:05.199Z,55.11
2018-02-06T01:48:33.726Z,54.67
2018-02-06T01:51:01.288Z,55.24
2018-02-06T01:53:28.887Z,55.67
2018-02-06T01:55:56.443Z,54.91
2018-02-06T01:58:24.044Z,55.06
2018-02-06T02:00:51.635Z,56.98
2018-02-06T02:03:19.192Z,59.45
2018-02-06T02:05:46.819Z,60.33
2018-02-06T02:08:14.761Z,62.01
2018-02-06T02:10:42.832Z,62.22
2018-02-06T02:13:10.435Z,62.37
2018-02-06T02:15:38.014Z,61.84
2018-02-06T02:18:05.562Z,60.33
2018-02-06T02:20:33.263Z,59.43
2018-02-06T02:23:00.858Z,58.58
2018-02-06T02:25:28.414Z,58.48
2018-02-06T02:27:56.019Z,58.03
2018-02-06T02:30:23.602Z,57.32
2018-02-06T02:32:51.154Z,56.77
2018-02-06T02:35:18.772Z,56.34
2018-02-06T02:37:46.323Z,56.15
2018-02-06T02:40:14.298Z,56.04
2018-02-06T04:40:49.227Z,57.46
2018-02-06T04:43:16.805Z,57.04
2018-02-06T04:45:44.396Z,56.70
2018-02-06T04:48:11.986Z,56.00
2018-02-06T04:50:39.527Z,55.54
2018-02-06T04:53:07.115Z,54.89
2018-02-06T04:55:34.654Z,54.66
2018-02-06T04:58:02.235Z,54.19
2018-02-06T05:00:29.774Z,54.28
2018-02-06T05:02:57.997Z,54.43
2018-02-06T05:05:25.543Z,54.55
2018-02-06T05:07:53.131Z,55.10
2018-02-06T05:10:20.722Z,54.66
2018-02-06T05:12:48.275Z,55.31
2018-02-06T05:15:16.471Z,57.63
2018-02-06T05:17:44.032Z,59.36
2018-02-06T05:20:11.634Z,59.28
2018-02-06T05:22:39.186Z,58.27
2018-02-06T05:25:06.744Z,57.90
2018-02-06T05:27:34.325Z,57.56
2018-02-06T05:30:01.919Z,57.27
2018-02-06T05:32:29.524Z,57.25
2018-02-06T05:34:57.068Z,57.13
2018-02-06T05:37:24.663Z,57.51
2018-02-06T05:39:52.267Z,57.16
2018-02-06T05:42:19.869Z,58.50
2018-02-06T05:44:47.505Z,59.79
2018-02-06T05:47:15.274Z,59.39
2018-02-06T05:49:42.827Z,58.25
2018-02-06T05:52:10.497Z,57.54
2018-02-06T05:54:38.095Z,57.15
2018-02-06T05:57:06.093Z,57.28
2018-02-06T05:59:33.685Z,58.18
2018-02-06T06:02:01.836Z,58.63
2018-02-06T06:04:29.459Z,59.59
2018-02-06T06:06:57.020Z,59.21
2018-02-06T06:09:24.637Z,58.73
2018-02-06T06:11:52.192Z,57.66
2018-02-06T06:14:19.800Z,57.03
2018-02-06T06:16:47.400Z,57.45
2018-02-06T06:19:15.447Z,56.92
2018-02-06T06:21:43.093Z,56.98
2018-02-06T06:24:11.471Z,57.90
2018-02-06T06:26:39.196Z,58.23
2018-02-06T06:29:07.176Z,58.59
2018-02-06T06:31:34.776Z,57.52
2018-02-06T06:34:03.102Z,56.57
2018-02-06T06:36:30.660Z,55.78
2018-02-06T06:38:58.253Z,56.28
2018-02-06T06:41:26.089Z,56.82
2018-02-06T06:43:53.978Z,57.73
2018-02-06T06:46:21.688Z,58.38
2018-02-06T06:48:49.283Z,57.57
2018-02-06T06:51:17.130Z,56.65
2018-02-06T06:53:44.695Z,56.64
2018-02-06T06:56:13.066Z,56.54
2018-02-06T06:58:40.670Z,58.05
2018-02-06T07:01:08.731Z,62.24
2018-02-06T07:03:36.304Z,65.51
2018-02-06T07:06:05.313Z,65.98
2018-02-06T07:08:33.338Z,65.88
2018-02-06T07:11:01.901Z,66.55
2018-02-06T07:13:29.674Z,65.83
2018-02-06T07:15:57.282Z,64.14
2018-02-06T07:18:25.309Z,62.95
2018-02-06T07:20:52.866Z,64.60
2018-02-06T07:23:22.052Z,64.66
2018-02-06T07:25:49.660Z,63.67
2018-02-06T07:28:17.560Z,63.23
2018-02-06T07:30:45.496Z,63.52
2018-02-06T07:33:13.144Z,64.60
2018-02-06T07:35:41.279Z,63.95
2018-02-06T07:38:08.832Z,64.14
2018-02-06T07:40:36.780Z,62.71
2018-02-06T07:43:05.079Z,61.86
2018-02-06T07:45:33.796Z,60.69
2018-02-06T07:48:02.298Z,60.08
2018-02-06T07:50:30.193Z,61.30
2018-02-06T07:52:59.817Z,63.49
2018-02-06T07:55:27.441Z,65.06
2018-02-06T07:57:55.511Z,65.75
2018-02-06T08:00:24.067Z,66.44
2018-02-06T08:02:51.673Z,66.94
2018-02-06T08:05:19.228Z,68.00
2018-02-06T08:07:46.788Z,67.31
2018-02-06T08:10:14.477Z,67.01
2018-02-06T08:12:42.037Z,65.63
2018-02-06T08:15:09.676Z,65.11
2018-02-06T08:17:37.236Z,65.46
2018-02-06T08:20:04.792Z,66.63
2018-02-06T08:22:32.396Z,68.30
2018-02-06T08:25:00.138Z,68.40
2018-02-06T08:27:27.710Z,68.42
2018-02-06T08:29:55.268Z,69.13
2018-02-06T08:32:22.869Z,69.28
2018-02-06T08:34:50.431Z,69.74
2018-02-06T08:37:18.060Z,69.78
2018-02-06T08:39:45.611Z,70.10
2018-02-06T08:42:13.218Z,69.29
2018-02-06T08:44:40.792Z,67.24
2018-02-06T08:47:08.408Z,66.29
2018-02-06T08:49:35.991Z,63.67
2018-02-06T08:52:03.602Z,62.97
2018-02-06T08:54:31.194Z,61.35
2018-02-06T08:56:58.808Z,60.45
2018-02-06T08:59:26.379Z,60.28
2018-02-06T09:01:53.967Z,60.14
2018-02-06T09:05:22.603Z,59.48
2018-02-06T09:07:50.268Z,59.65
2018-02-06T09:10:17.816Z,60.89
2018-02-06T09:12:46.009Z,62.09
2018-02-06T09:15:13.558Z,63.40
2018-02-06T09:17:41.838Z,62.73
2018-02-06T09:20:09.431Z,64.15
2018-02-06T09:22:37.032Z,65.58
2018-02-06T09:25:04.583Z,66.56
2018-02-06T09:27:33.133Z,64.28
2018-02-06T09:30:01.516Z,62.37
2018-02-06T09:32:29.133Z,61.34
2018-02-06T09:34:56.734Z,60.83
2018-02-06T09:37:24.347Z,60.12
2018-02-06T09:39:51.895Z,62.29
2018-02-06T09:42:19.490Z,64.31
2018-02-06T09:44:47.855Z,64.46
2018-02-06T09:47:15.432Z,63.82
2018-02-06T09:49:42.974Z,65.13
2018-02-06T09:52:10.570Z,65.09
2018-02-06T09:54:38.113Z,65.58
2018-02-06T09:57:05.663Z,67.05
2018-02-06T09:59:34.127Z,65.07
2018-02-06T10:02:02.873Z,65.96
2018-02-06T10:04:30.427Z,65.88
2018-02-06T10:06:58.019Z,64.97
2018-02-06T10:09:25.606Z,65.91
2018-02-06T10:11:53.374Z,64.69
2018-02-06T10:14:20.966Z,63.98
2018-02-06T10:16:48.528Z,63.69
2018-02-06T10:19:16.097Z,63.72
2018-02-06T10:21:43.677Z,63.37
2018-02-06T10:24:12.151Z,61.81
2018-02-06T10:26:39.698Z,60.72
2018-02-06T10:29:07.724Z,60.19
2018-02-06T10:31:36.067Z,59.28
2018-02-06T10:34:03.751Z,59.54
2018-02-06T10:36:32.436Z,59.83
2018-02-06T10:38:59.994Z,58.60
2018-02-06T10:41:28.379Z,59.05
2018-02-06T10:43:56.156Z,60.83
2018-02-06T10:46:23.747Z,61.25
2018-02-06T10:48:51.682Z,61.48
2018-02-06T10:51:19.448Z,62.19
2018-02-06T10:53:46.997Z,61.54
2018-02-06T10:56:14.621Z,61.50
2018-02-06T10:58:42.235Z,61.05
2018-02-06T11:01:09.818Z,61.21
2018-02-06T11:03:37.411Z,60.52
2018-02-06T11:06:04.993Z,61.70
2018-02-06T11:08:32.538Z,61.58
2018-02-06T11:11:00.514Z,60.57
2018-02-06T11:13:28.673Z,59.76
2018-02-06T11:15:56.238Z,60.28
2018-02-06T11:18:23.847Z,60.53
2018-02-06T11:20:51.426Z,60.81
2018-02-06T11:23:19.029Z,61.01
2018-02-06T11:25:46.565Z,60.86
2018-02-06T11:28:14.165Z,60.84
2018-02-06T11:30:42.708Z,60.41
2018-02-06T11:33:10.326Z,60.38
2018-02-06T11:35:38.883Z,61.35
2018-02-06T11:38:06.434Z,61.34
2018-02-06T11:40:34.286Z,60.89
2018-02-06T11:43:01.830Z,61.00
2018-02-06T11:45:29.648Z,61.84
2018-02-06T11:47:57.189Z,61.77
2018-02-06T11:50:24.765Z,61.50
2018-02-06T11:52:52.355Z,61.56
2018-02-06T11:55:19.904Z,61.07
2018-02-06T11:57:47.494Z,60.76
2018-02-06T12:00:15.131Z,60.93
2018-02-06T12:02:42.713Z,60.40
2018-02-06T12:05:10.313Z,60.18
2018-02-06T12:07:38.121Z,59.83
2018-02-06T12:10:06.091Z,58.90
2018-02-06T12:12:33.705Z,58.89
2018-02-06T12:15:01.246Z,59.56
2018-02-06T12:17:29.095Z,59.01
2018-02-06T12:19:56.674Z,58.19
2018-02-06T12:22:26.797Z,58.79
2018-02-06T12:24:55.106Z,59.02
2018-02-06T12:27:22.656Z,58.48
2018-02-06T12:29:50.290Z,57.74
2018-02-06T12:32:17.842Z,57.58
2018-02-06T12:34:46.134Z,56.50
2018-02-06T12:37:13.685Z,57.15
2018-02-06T12:39:41.244Z,56.79
2018-02-06T12:42:09.320Z,56.24
2018-02-06T12:44:37.312Z,56.19
2018-02-06T12:47:05.042Z,55.54
2018-02-06T12:49:32.582Z,55.71
2018-02-06T12:52:00.193Z,55.12
2018-02-06T12:54:28.279Z,55.56
2018-02-06T12:56:55.849Z,56.08
2018-02-06T12:59:23.453Z,56.64
2018-02-06T13:01:51.017Z,56.11
2018-02-06T13:04:22.721Z,56.16
2018-02-06T13:06:50.297Z,56.39
2018-02-06T13:09:17.959Z,54.70
2018-02-06T13:11:45.511Z,54.00
2018-02-06T13:14:13.125Z,55.21
2018-02-06T13:16:40.711Z,56.17
2018-02-06T13:19:08.262Z,56.84
2018-02-06T13:21:35.944Z,56.92
2018-02-06T13:24:03.486Z,57.59
2018-02-06T13:26:31.093Z,57.26
2018-02-06T13:28:58.673Z,57.11
2018-02-06T13:31:26.272Z,57.19
2018-02-06T13:33:54.071Z,56.73
2018-02-06T13:36:22.301Z,57.45
2018-02-06T13:38:49.885Z,56.59
2018-02-06T13:41:17.423Z,56.49
2018-02-06T13:43:45.728Z,55.72
2018-02-06T13:46:13.302Z,55.67
2018-02-06T13:48:41.033Z,54.45
2018-02-06T13:51:08.622Z,55.67
2018-02-06T13:53:36.172Z,55.46
2018-02-06T13:56:03.808Z,55.03
2018-02-06T13:58:31.374Z,54.95
2018-02-06T14:00:58.914Z,55.68
2018-02-06T14:03:26.502Z,56.46
2018-02-06T14:05:54.916Z,57.76
2018-02-06T14:08:22.530Z,58.09
2018-02-06T14:10:51.181Z,58.35
2018-02-06T14:13:19.816Z,57.86
2018-02-06T14:15:47.922Z,57.15
2018-02-06T14:18:15.715Z,57.05
2018-02-06T14:20:45.154Z,57.39
2018-02-06T14:23:13.623Z,57.86
2018-02-06T14:25:41.464Z,57.95
2018-02-06T14:28:09.012Z,57.85
2018-02-06T14:30:36.606Z,57.99
2018-02-06T14:33:04.137Z,58.21
2018-02-06T14:35:31.710Z,58.90
2018-02-06T14:37:59.433Z,59.24
2018-02-06T14:40:26.979Z,58.63
2018-02-06T14:42:54.894Z,57.81
2018-02-06T14:45:23.434Z,56.94
2018-02-06T14:47:52.200Z,56.27
2018-02-06T14:50:19.773Z,55.80
2018-02-06T14:52:48.132Z,55.33
2018-02-06T14:55:15.788Z,55.00
2018-02-06T14:57:43.339Z,54.79
2018-02-06T15:00:10.893Z,54.56
2018-02-06T15:02:38.498Z,54.42
2018-02-06T15:05:06.052Z,54.28
2018-02-06T15:07:33.643Z,54.03
2018-02-06T15:10:01.234Z,53.74
2018-02-06T15:12:28.787Z,53.88
2018-02-06T15:14:57.042Z,53.54
2018-02-06T15:17:25.065Z,53.44
2018-02-06T15:19:53.004Z,53.50
2018-02-06T15:22:20.900Z,53.62
2018-02-06T15:24:48.474Z,53.54
2018-02-06T15:27:17.414Z,53.73
2018-02-06T15:29:45.005Z,54.21
2018-02-06T15:32:12.806Z,54.19
2018-02-06T15:34:41.347Z,54.14
2018-02-06T15:37:08.947Z,54.28
2018-02-06T15:39:37.617Z,54.31
2018-02-06T15:42:05.186Z,55.12
2018-02-06T15:44:33.048Z,57.15
2018-02-06T15:47:00.599Z,57.21
2018-02-06T15:49:28.282Z,56.62
2018-02-06T15:51:55.841Z,56.00
2018-02-06T15:54:23.805Z,55.55
2018-02-06T15:56:51.349Z,55.31
2018-02-06T15:59:18.979Z,55.28
2018-02-06T16:01:47.192Z,55.21
2018-02-06T16:04:14.802Z,55.42
2018-02-06T16:06:43.346Z,55.83
2018-02-06T16:09:10.950Z,56.05
2018-02-06T16:11:38.961Z,56.19
2018-02-06T16:14:08.445Z,56.54
2018-02-06T16:16:37.252Z,56.67
2018-02-06T16:19:05.361Z,56.40
2018-02-06T16:21:33.214Z,57.62
2018-02-06T16:24:01.923Z,58.25
2018-02-06T16:26:30.245Z,57.90
2018-02-06T16:28:57.850Z,57.65
2018-02-06T16:31:25.998Z,57.11
2018-02-06T16:33:53.909Z,57.18
2018-02-06T16:36:22.622Z,57.69
2018-02-06T16:38:50.582Z,57.50
2018-02-06T16:41:19.055Z,57.48
2018-02-06T16:43:47.041Z,57.17
2018-02-06T16:46:15.447Z,56.84
2018-02-06T16:48:43.489Z,56.77
2018-02-06T16:51:11.627Z,56.76
2018-02-06T16:53:39.722Z,56.96
2018-02-06T16:56:07.859Z,57.10
2018-02-06T16:58:37.371Z,56.99
2018-02-06T17:01:05.733Z,57.02
2018-02-06T17:03:33.964Z,57.02
2018-02-06T17:06:02.601Z,56.94
2018-02-06T17:08:30.772Z,56.80
2018-02-06T17:10:59.563Z,56.82
2018-02-06T17:13:28.458Z,56.74
2018-02-06T17:15:56.833Z,57.24
2018-02-06T17:18:25.477Z,57.17
2018-02-06T17:20:53.474Z,57.08
2018-02-06T17:23:21.910Z,57.05
2018-02-06T17:25:51.295Z,56.87
2018-02-06T17:28:20.074Z,56.72
2018-02-06T17:30:48.562Z,56.42
2018-02-06T17:33:17.023Z,56.45
2018-02-06T17:35:44.998Z,56.33
2018-02-06T17:38:13.799Z,56.10
2018-02-06T17:40:42.160Z,58.65
2018-02-06T17:43:10.865Z,61.09
2018-02-06T17:45:39.244Z,62.35
2018-02-06T17:48:07.717Z,62.34
2018-02-06T17:50:38.723Z,63.17
2018-02-06T17:53:07.433Z,62.19
2018-02-06T17:55:36.441Z,61.99
2018-02-06T17:58:05.726Z,61.74
2018-02-06T18:00:35.152Z,60.68
2018-02-06T18:03:04.150Z,60.10
2018-02-06T18:05:33.326Z,60.11
2018-02-06T18:08:02.314Z,61.00
2018-02-06T18:10:30.698Z,61.55
2018-02-06T18:13:01.505Z,62.87
2018-02-06T18:15:30.211Z,64.00
2018-02-06T18:17:59.576Z,64.72
2018-02-06T18:20:28.168Z,65.56
2018-02-06T18:22:56.582Z,66.57
2018-02-06T18:25:25.268Z,67.29
2018-02-06T18:27:55.417Z,67.75
2018-02-06T18:30:25.235Z,66.14
2018-02-06T18:32:53.783Z,64.34
2018-02-06T18:35:22.488Z,62.71
2018-02-06T18:37:51.094Z,63.79
2018-02-06T18:40:19.842Z,64.14
2018-02-06T18:42:49.177Z,62.80
2018-02-06T18:45:18.889Z,61.56
2018-02-06T18:47:47.020Z,60.86
2018-02-06T18:50:16.131Z,60.09
2018-02-06T18:52:44.807Z,59.92
2018-02-06T18:55:13.122Z,60.73
2018-02-06T18:57:42.176Z,61.74
2018-02-06T19:00:10.857Z,62.38
2018-02-06T19:02:40.799Z,61.73
2018-02-06T19:05:10.020Z,60.92
2018-02-06T19:07:39.384Z,62.46
2018-02-06T19:10:08.332Z,63.79
2018-02-06T19:12:36.375Z,62.86
2018-02-06T19:15:05.228Z,61.85
2018-02-06T19:17:34.877Z,60.83
2018-02-06T19:20:03.436Z,60.11
2018-02-06T19:22:31.675Z,59.31
2018-02-06T19:25:01.099Z,59.18
2018-02-06T19:27:29.479Z,59.06
2018-02-06T19:29:58.270Z,58.38
2018-02-06T19:32:27.576Z,58.14
2018-02-06T19:34:55.845Z,57.86
2018-02-06T19:37:24.644Z,58.31
2018-02-06T19:39:53.546Z,58.24
2018-02-06T19:42:23.119Z,57.99
2018-02-06T19:44:51.960Z,57.88
2018-02-06T19:47:21.660Z,57.54
2018-02-06T19:49:50.517Z,57.73
2018-02-06T19:52:19.855Z,57.82
2018-02-06T19:54:49.935Z,57.58
2018-02-06T19:57:19.487Z,57.58
2018-02-06T19:59:48.333Z,57.39
2018-02-06T20:02:17.363Z,57.06
2018-02-06T20:04:46.219Z,57.12
2018-02-06T20:07:15.235Z,56.96
2018-02-06T20:09:44.852Z,56.83
2018-02-06T20:12:14.733Z,56.58
2018-02-06T20:14:43.076Z,58.90
2018-02-06T20:17:12.213Z,61.40
2018-02-06T20:19:40.279Z,60.58
2018-02-06T20:22:08.383Z,59.29
2018-02-06T20:24:37.560Z,58.94
2018-02-06T20:27:06.070Z,58.60
2018-02-06T20:29:34.633Z,58.93
2018-02-06T20:32:02.684Z,61.70
2018-02-06T20:34:30.943Z,64.13
2018-02-06T20:36:58.961Z,65.07
2018-02-06T20:39:26.989Z,64.12
2018-02-06T20:41:56.153Z,63.77
2018-02-06T20:44:24.509Z,63.97
2018-02-06T20:46:52.741Z,65.12
2018-02-06T20:49:21.031Z,66.86
2018-02-06T20:51:49.404Z,67.00
2018-02-06T20:54:17.362Z,67.34
2018-02-06T20:56:45.438Z,68.02
2018-02-06T20:59:13.599Z,67.81
2018-02-06T21:01:41.680Z,67.59
2018-02-06T21:04:10.984Z,67.11
2018-02-06T21:06:39.056Z,67.45
2018-02-06T21:09:07.116Z,67.65
2018-02-06T21:11:34.951Z,67.99
2018-02-06T21:14:02.905Z,68.71
2018-02-06T21:16:30.990Z,69.53
2018-02-06T21:18:58.947Z,70.26
2018-02-06T21:21:26.534Z,70.24
2018-02-06T21:23:55.211Z,69.39
2018-02-06T21:26:22.783Z,68.98
2018-02-06T21:28:50.445Z,68.73
2018-02-06T21:31:18.030Z,69.30
2018-02-06T21:33:45.575Z,70.22
2018-02-06T21:36:13.215Z,69.96
2018-02-06T21:38:40.745Z,67.94
2018-02-06T21:41:08.339Z,67.09
2018-02-06T21:43:35.893Z,68.48
2018-02-06T21:46:03.876Z,68.10
2018-02-06T21:48:31.461Z,66.23
2018-02-06T21:50:59.866Z,64.68
2018-02-06T21:53:27.406Z,63.40
2018-02-06T21:55:54.960Z,62.31
2018-02-06T21:58:22.552Z,64.62
2018-02-06T22:00:50.157Z,67.67
2018-02-06T22:03:17.737Z,67.40
2018-02-06T22:05:45.284Z,68.26
2018-02-06T22:08:13.684Z,70.02
2018-02-06T22:10:41.224Z,70.18
2018-02-06T22:13:08.968Z,69.10
2018-02-06T22:15:36.510Z,68.70
2018-02-06T22:18:04.510Z,68.10
2018-02-06T22:20:32.063Z,67.30
2018-02-06T22:22:59.790Z,68.21
2018-02-06T22:25:27.349Z,67.78
2018-02-06T22:27:54.943Z,66.21
2018-02-06T22:30:22.543Z,65.34
2018-02-06T22:32:50.086Z,65.14
2018-02-06T22:35:17.675Z,64.33
2018-02-06T22:37:45.591Z,64.95
2018-02-06T22:40:13.199Z,66.69
2018-02-06T22:42:40.778Z,65.94
2018-02-06T22:45:08.753Z,64.40
2018-02-06T22:47:36.335Z,63.01
2018-02-06T22:50:04.385Z,62.27
2018-02-06T22:52:32.591Z,62.21
2018-02-06T22:55:00.130Z,61.73
2018-02-06T22:57:27.726Z,60.98
2018-02-06T22:59:55.305Z,60.03
2018-02-06T23:02:22.894Z,60.56
2018-02-06T23:04:50.435Z,61.05
2018-02-06T23:07:18.022Z,62.79
2018-02-06T23:09:45.608Z,64.77
2018-02-06T23:12:13.200Z,64.27
2018-02-06T23:14:41.164Z,64.09
2018-02-06T23:17:08.753Z,64.40
2018-02-06T23:19:36.307Z,63.99
2018-02-06T23:22:03.870Z,63.98
2018-02-06T23:24:31.686Z,64.55
2018-02-06T23:26:59.516Z,64.49
2018-02-06T23:29:27.101Z,64.95
2018-02-06T23:31:55.022Z,65.30
2018-02-06T23:34:22.621Z,65.63
2018-02-06T23:36:50.224Z,65.96
2018-02-06T23:39:17.813Z,64.97
2018-02-06T23:41:46.299Z,63.76
2018-02-06T23:44:13.842Z,62.71
2018-02-06T23:46:41.434Z,61.68
2018-02-06T23:49:09.479Z,60.79
2018-02-06T23:51:37.057Z,60.07
2018-02-06T23:54:04.599Z,59.64
2018-02-06T23:56:32.187Z,59.87
2018-02-06T23:58:59.770Z,59.41
